Time;durP1;ratioP1;P1;durP2;ratioP2;P2;SDS_P1;SDS_P2;PMS_P1;PMS_P2;Temp;Humidity;BMP_temperature;BMP_pressure;BME280_temperature;BME280_humidity;BME280_pressure;Samples;Min_cycle;Max_cycle;Signal;HPM_P1;HPM_P2
2021/03/23 00:01:07;;;;;;;15.78;10.53;;;;;;;0.45;54.82;94158.37;1739213;81;21082;-56
2021/03/23 00:03:39;;;;;;;27.37;14.05;;;;;;;0.56;54.64;94163.13;1734913;82;21132;-56
2021/03/23 00:06:08;;;;;;;25.68;13.62;;;;;;;0.64;54.48;94164.64;1747061;81;21203;-56
2021/03/23 00:08:40;;;;;;;22.42;11.22;;;;;;;0.57;54.81;94162.56;1736014;81;21187;-56
2021/03/23 00:11:14;;;;;;;14.03;10.10;;;;;;;0.45;54.88;94158.37;1737401;81;21218;-56
2021/03/23 00:13:45;;;;;;;17.25;10.82;;;;;;;0.33;54.78;94161.56;1746088;81;21496;-55
2021/03/23 00:16:14;;;;;;;22.27;13.10;;;;;;;0.29;54.79;94162.17;1745650;81;21095;-56
2021/03/23 00:18:42;;;;;;;53.35;21.65;;;;;;;0.38;54.93;94155.72;1750593;82;21099;-55
2021/03/23 00:21:10;;;;;;;21.02;10.90;;;;;;;0.51;54.63;94154.66;1750563;82;21135;-56
2021/03/23 00:23:38;;;;;;;21.97;10.45;;;;;;;0.55;54.26;94153.48;1744993;81;21396;-54
2021/03/23 00:26:08;;;;;;;16.02;10.25;;;;;;;0.60;54.08;94155.75;1749424;81;21208;-55
2021/03/23 00:28:36;;;;;;;19.90;11.05;;;;;;;0.65;54.18;94156.70;1755849;81;21470;-58
2021/03/23 00:31:04;;;;;;;16.30;10.28;;;;;;;0.58;54.32;94158.09;1747352;81;21095;-55
2021/03/23 00:33:33;;;;;;;17.00;10.13;;;;;;;0.58;54.00;94156.73;1752538;81;21472;-56
2021/03/23 00:36:02;;;;;;;17.30;10.75;;;;;;;0.57;54.19;94162.56;1731276;81;21403;-56
2021/03/23 00:38:30;;;;;;;18.45;10.58;;;;;;;0.57;54.39;94163.31;1725518;81;21091;-57
2021/03/23 00:40:57;;;;;;;19.30;11.45;;;;;;;0.63;54.38;94169.08;1736719;82;21136;-56
2021/03/23 00:43:25;;;;;;;21.65;12.07;;;;;;;0.66;54.51;94166.36;1737086;81;21729;-54
2021/03/23 00:45:54;;;;;;;29.07;14.03;;;;;;;0.65;54.22;94167.52;1733413;82;21090;-55
2021/03/23 00:48:21;;;;;;;20.52;11.35;;;;;;;0.67;54.27;94171.95;1711696;81;21523;-57
2021/03/23 00:50:50;;;;;;;19.70;11.85;;;;;;;0.72;54.44;94168.03;1740892;81;21501;-56
2021/03/23 00:53:18;;;;;;;18.92;10.23;;;;;;;0.75;54.28;94169.36;1726635;82;21596;-56
2021/03/23 00:55:46;;;;;;;22.05;9.90;;;;;;;0.69;54.36;94170.97;1725770;82;21064;-57
2021/03/23 00:58:14;;;;;;;19.17;9.98;;;;;;;0.56;54.21;94165.84;1720042;82;21057;-56
2021/03/23 01:00:42;;;;;;;17.73;10.48;;;;;;;0.49;54.20;94168.60;1734656;82;21217;-56
2021/03/23 01:03:09;;;;;;;22.98;12.03;;;;;;;0.49;54.38;94162.41;1725461;82;21180;-56
2021/03/23 01:05:38;;;;;;;21.80;11.15;;;;;;;0.56;54.57;94175.91;1723121;82;21162;-55
2021/03/23 01:08:07;;;;;;;17.98;11.22;;;;;;;0.60;54.55;94163.87;1742227;81;21151;-56
2021/03/23 01:10:36;;;;;;;20.52;9.88;;;;;;;0.66;54.27;94166.36;1750436;82;21116;-56
2021/03/23 01:13:04;;;;;;;25.05;13.83;;;;;;;0.64;54.08;94167.34;1747132;81;23463;-56
2021/03/23 01:15:33;;;;;;;13.93;8.88;;;;;;;0.63;54.23;94161.71;1734264;81;21103;-56
2021/03/23 01:18:01;;;;;;;11.28;8.63;;;;;;;0.63;54.01;94167.72;1737127;81;21144;-55
2021/03/23 01:20:31;;;;;;;12.43;8.80;;;;;;;0.59;53.72;94166.39;1732285;81;21151;-55
2021/03/23 01:22:59;;;;;;;20.62;10.50;;;;;;;0.48;53.93;94157.59;1721136;81;21204;-55
2021/03/23 01:25:28;;;;;;;18.37;9.38;;;;;;;0.44;54.25;94169.00;1723193;82;21365;-55
2021/03/23 01:27:57;;;;;;;17.30;9.05;;;;;;;0.40;54.33;94164.20;1728501;82;21190;-56
2021/03/23 01:30:27;;;;;;;16.97;9.75;;;;;;;0.37;54.58;94166.36;1716708;82;21166;-56
2021/03/23 01:32:56;;;;;;;17.12;9.75;;;;;;;0.22;54.83;94158.14;1720021;82;21077;-56
2021/03/23 01:35:26;;;;;;;14.58;9.40;;;;;;;0.17;55.18;94153.72;1718706;82;21214;-56
2021/03/23 01:37:55;;;;;;;22.25;9.30;;;;;;;0.19;55.25;94164.34;1732223;82;21372;-56
2021/03/23 01:40:26;;;;;;;18.17;10.00;;;;;;;0.31;55.24;94158.48;1731400;82;21061;-55
2021/03/23 01:42:57;;;;;;;19.87;10.30;;;;;;;0.39;55.10;94159.96;1724387;82;21183;-56
2021/03/23 01:45:33;;;;;;;17.73;9.50;;;;;;;0.46;54.86;94161.86;1726989;82;21048;-56
2021/03/23 01:48:06;;;;;;;20.05;11.05;;;;;;;0.46;54.87;94156.44;1734945;82;21077;-56
2021/03/23 01:50:34;;;;;;;16.95;11.90;;;;;;;0.52;54.93;94158.34;1732171;82;21355;-56
2021/03/23 01:53:20;;;;;;;14.95;9.70;;;;;;;0.60;54.95;94162.52;1721546;82;21068;-56
2021/03/23 01:55:48;;;;;;;15.28;8.95;;;;;;;0.67;54.75;94160.34;1730053;81;21111;-55
2021/03/23 01:58:17;;;;;;;17.05;9.43;;;;;;;0.66;54.65;94162.30;1729420;82;21653;-55
2021/03/23 02:00:48;;;;;;;27.07;15.38;;;;;;;0.71;54.49;94168.63;1721467;81;21281;-56
2021/03/23 02:03:18;;;;;;;15.95;9.03;;;;;;;0.75;54.45;94159.89;1711481;82;22100;-56
2021/03/23 02:05:58;;;;;;;17.75;11.45;;;;;;;0.74;54.19;94151.59;1725750;82;21604;-55
2021/03/23 02:08:27;;;;;;;17.32;10.45;;;;;;;0.63;54.44;94154.20;1732265;82;21166;-54
2021/03/23 02:10:58;;;;;;;17.20;12.00;;;;;;;0.59;54.63;94155.56;1726505;82;21191;-55
2021/03/23 02:13:25;;;;;;;24.63;12.53;;;;;;;0.59;54.89;94159.62;1728285;82;21076;-54
2021/03/23 02:15:54;;;;;;;26.17;16.65;;;;;;;0.67;55.05;94161.13;1723974;82;21206;-56
2021/03/23 02:18:25;;;;;;;24.43;14.65;;;;;;;0.75;55.07;94165.91;1697583;82;21095;-56
2021/03/23 02:21:08;;;;;;;23.52;13.90;;;;;;;0.79;55.07;94166.64;1737226;82;21171;-56
2021/03/23 02:23:42;;;;;;;34.35;15.75;;;;;;;0.77;54.86;94168.98;1729370;82;21160;-56
2021/03/23 02:26:13;;;;;;;23.87;12.98;;;;;;;0.64;55.18;94174.11;1719351;82;21083;-56
2021/03/23 02:29:00;;;;;;;16.52;11.33;;;;;;;0.56;55.60;94177.26;1725287;82;21196;-56
2021/03/23 02:31:40;;;;;;;25.32;14.78;;;;;;;0.50;56.01;94175.55;1719695;82;21227;-56
2021/03/23 02:34:11;;;;;;;33.20;18.20;;;;;;;0.43;56.27;94178.88;1724671;82;21132;-56
2021/03/23 02:36:41;;;;;;;23.02;14.60;;;;;;;0.48;56.23;94187.36;1723872;82;21116;-56
2021/03/23 02:39:13;;;;;;;18.45;11.70;;;;;;;0.42;56.29;94175.39;1730755;82;21489;-56
2021/03/23 02:41:41;;;;;;;20.27;12.10;;;;;;;0.35;56.84;94186.27;1721356;82;21200;-55
2021/03/23 02:44:09;;;;;;;23.90;12.95;;;;;;;0.24;56.56;94180.14;1726694;82;21132;-56
2021/03/23 02:46:38;;;;;;;44.50;21.35;;;;;;;0.11;57.20;94185.84;1737369;81;21156;-55
2021/03/23 02:49:07;;;;;;;32.00;15.75;;;;;;;0.08;57.20;94186.61;1738483;81;21194;-55
2021/03/23 02:51:35;;;;;;;28.77;16.50;;;;;;;0.01;57.09;94192.05;1733737;81;21056;-56
2021/03/23 02:54:05;;;;;;;45.25;22.45;;;;;;;-0.06;57.30;94192.67;1721134;82;21388;-55
2021/03/23 02:56:34;;;;;;;52.93;27.50;;;;;;;-0.09;57.61;94193.45;1724978;82;21068;-56
2021/03/23 02:59:02;;;;;;;40.85;23.45;;;;;;;0.02;57.62;94188.78;1727924;82;21079;-56
2021/03/23 03:01:33;;;;;;;34.95;18.75;;;;;;;0.11;57.36;94192.59;1728967;82;21097;-55
2021/03/23 03:04:04;;;;;;;25.88;16.15;;;;;;;0.12;57.24;94196.84;1730525;82;21135;-56
2021/03/23 03:06:32;;;;;;;24.35;13.03;;;;;;;0.06;57.20;94190.28;1728774;82;21512;-56
2021/03/23 03:09:02;;;;;;;28.10;12.25;;;;;;;-0.10;57.20;94195.97;1728569;81;21162;-56
2021/03/23 03:11:29;;;;;;;19.60;11.55;;;;;;;-0.31;57.70;94192.58;1726469;82;21220;-56
2021/03/23 03:13:58;;;;;;;15.05;10.15;;;;;;;-0.47;57.68;94200.34;1727605;82;21128;-56
2021/03/23 03:16:26;;;;;;;14.45;9.65;;;;;;;-0.57;58.16;94199.21;1732873;82;21578;-57
2021/03/23 03:18:54;;;;;;;19.15;11.10;;;;;;;-0.61;58.42;94193.66;1733616;82;21374;-55
2021/03/23 03:21:23;;;;;;;25.80;15.25;;;;;;;-0.58;58.64;94195.56;1731070;82;21489;-56
2021/03/23 03:23:51;;;;;;;35.55;19.60;;;;;;;-0.48;58.98;94198.80;1726979;82;21042;-56
2021/03/23 03:26:20;;;;;;;19.12;12.00;;;;;;;-0.41;59.14;94200.16;1722001;82;21107;-56
2021/03/23 03:28:52;;;;;;;36.93;21.35;;;;;;;-0.35;58.82;94202.63;1750158;81;21599;-56
2021/03/23 03:31:23;;;;;;;54.93;27.60;;;;;;;-0.24;59.17;94200.67;1709603;82;21646;-56
2021/03/23 03:33:53;;;;;;;67.47;30.17;;;;;;;-0.03;59.12;94202.69;1731857;82;21096;-56
2021/03/23 03:36:23;;;;;;;55.35;27.37;;;;;;;0.09;59.04;94198.98;1734058;82;21501;-56
2021/03/23 03:38:51;;;;;;;37.53;21.07;;;;;;;0.19;58.68;94200.09;1707045;82;21532;-55
2021/03/23 03:41:20;;;;;;;31.80;18.10;;;;;;;0.23;58.10;94200.24;1745623;82;21131;-55
2021/03/23 03:43:49;;;;;;;36.53;19.60;;;;;;;0.18;57.45;94193.13;1733401;82;22186;-55
2021/03/23 03:46:17;;;;;;;36.70;17.40;;;;;;;0.04;57.47;94193.97;1726681;81;21191;-56
2021/03/23 03:48:45;;;;;;;30.62;17.37;;;;;;;-0.02;57.52;94190.14;1723121;82;21063;-55
2021/03/23 03:51:13;;;;;;;29.20;16.77;;;;;;;-0.15;57.73;94187.50;1729147;82;21082;-55
2021/03/23 03:53:41;;;;;;;29.55;16.75;;;;;;;-0.23;58.37;94193.52;1733126;82;21151;-56
2021/03/23 03:56:09;;;;;;;29.82;17.02;;;;;;;-0.19;58.33;94201.61;1719694;82;22109;-56
2021/03/23 03:58:37;;;;;;;20.02;13.83;;;;;;;-0.25;58.37;94187.73;1691043;82;21153;-55
2021/03/23 04:01:05;;;;;;;20.08;13.13;;;;;;;-0.27;58.61;94181.16;1707198;82;21164;-55
2021/03/23 04:03:34;;;;;;;26.70;15.65;;;;;;;-0.27;58.35;94185.22;1726516;82;21100;-56
2021/03/23 04:06:02;;;;;;;32.33;17.52;;;;;;;-0.36;58.49;94182.97;1721735;82;21690;-55
2021/03/23 04:08:33;;;;;;;44.05;18.82;;;;;;;-0.36;58.62;94186.23;1728581;82;21205;-55
2021/03/23 04:11:04;;;;;;;36.95;19.95;;;;;;;-0.33;58.33;94187.58;1725814;82;21071;-55
2021/03/23 04:13:32;;;;;;;36.10;19.00;;;;;;;-0.33;58.25;94185.45;1731665;80;21531;-55
2021/03/23 04:16:01;;;;;;;39.00;21.20;;;;;;;-0.35;58.20;94186.42;1725311;81;21128;-56
2021/03/23 04:18:29;;;;;;;39.90;21.15;;;;;;;-0.36;58.16;94190.28;1717899;81;21128;-55
2021/03/23 04:21:00;;;;;;;52.93;28.98;;;;;;;-0.36;58.08;94198.39;1726669;81;21357;-55
2021/03/23 04:23:33;;;;;;;41.83;25.72;;;;;;;-0.42;57.98;94189.91;1732838;81;21162;-55
2021/03/23 04:26:01;;;;;;;47.93;27.48;;;;;;;-0.50;58.24;94198.42;1719066;82;21168;-57
2021/03/23 04:28:31;;;;;;;46.63;27.70;;;;;;;-0.57;58.33;94198.45;1735451;82;21172;-56
2021/03/23 04:30:59;;;;;;;51.50;27.70;;;;;;;-0.63;58.37;94202.73;1720326;82;21112;-56
2021/03/23 04:33:29;;;;;;;70.97;39.90;;;;;;;-0.74;58.77;94200.02;1739570;82;21558;-57
2021/03/23 04:36:08;;;;;;;72.90;43.78;;;;;;;-0.74;58.95;94199.27;1746129;82;21207;-58
2021/03/23 04:38:37;;;;;;;83.78;48.98;;;;;;;-0.70;58.94;94200.02;1730645;82;21127;-58
2021/03/23 04:41:08;;;;;;;68.80;39.53;;;;;;;-0.65;58.85;94197.70;1730209;82;21607;-56
2021/03/23 04:43:40;;;;;;;66.92;38.02;;;;;;;-0.70;58.99;94195.97;1721040;81;21160;-56
2021/03/23 04:46:08;;;;;;;66.60;38.38;;;;;;;-0.74;59.12;94198.67;1724757;82;22121;-59
2021/03/23 04:48:37;;;;;;;66.28;39.80;;;;;;;-0.73;59.23;94199.45;1724410;82;21222;-55
2021/03/23 04:51:11;;;;;;;68.83;36.23;;;;;;;-0.72;59.29;94196.38;1729183;81;21219;-55
2021/03/23 04:53:40;;;;;;;61.20;34.05;;;;;;;-0.71;59.27;94191.16;1736151;82;21604;-56
2021/03/23 04:56:22;;;;;;;110.83;53.70;;;;;;;-0.70;59.44;94202.72;1736204;81;21119;-56
2021/03/23 04:58:52;;;;;;;82.80;43.03;;;;;;;-0.69;59.27;94196.95;1721543;82;21210;-55
2021/03/23 05:01:20;;;;;;;72.65;36.93;;;;;;;-0.83;59.04;94202.36;1720049;82;21140;-57
2021/03/23 05:03:54;;;;;;;62.65;33.15;;;;;;;-0.96;59.38;94200.46;1721534;82;21132;-56
2021/03/23 05:06:24;;;;;;;52.43;27.75;;;;;;;-0.99;59.73;94203.34;1732624;82;21080;-55
2021/03/23 05:08:52;;;;;;;50.40;26.93;;;;;;;-0.97;59.97;94207.02;1714040;82;21661;-55
2021/03/23 05:11:24;;;;;;;56.80;31.17;;;;;;;-0.87;59.97;94203.52;1717470;82;21399;-56
2021/03/23 05:13:52;;;;;;;73.70;38.63;;;;;;;-0.75;59.96;94208.52;1731614;82;21501;-56
2021/03/23 05:16:21;;;;;;;79.80;44.25;;;;;;;-0.55;59.74;94209.64;1721541;82;21084;-56
2021/03/23 05:18:50;;;;;;;94.92;54.60;;;;;;;-0.42;59.71;94210.77;1725031;82;21150;-56
2021/03/23 05:21:18;;;;;;;61.55;36.93;;;;;;;-0.31;59.82;94204.73;1731401;82;21160;-57
2021/03/23 05:23:46;;;;;;;62.00;34.38;;;;;;;-0.16;59.57;94203.52;1726491;82;21218;-56
2021/03/23 05:26:15;;;;;;;48.05;27.40;;;;;;;0.02;59.18;94207.71;1729244;82;21202;-55
2021/03/23 05:28:47;;;;;;;48.30;28.57;;;;;;;0.21;58.88;94202.58;1734374;82;21061;-55
2021/03/23 05:31:15;;;;;;;57.67;33.35;;;;;;;0.28;58.92;94211.23;1734995;82;21115;-56
2021/03/23 05:33:43;;;;;;;177.78;89.30;;;;;;;0.40;58.79;94204.78;1718471;82;21180;-57
2021/03/23 05:36:11;;;;;;;113.57;59.88;;;;;;;0.46;58.38;94201.87;1743484;81;22007;-56
2021/03/23 05:38:39;;;;;;;71.75;38.90;;;;;;;0.48;58.19;94204.16;1735527;82;21579;-57
2021/03/23 05:41:21;;;;;;;32.17;19.65;;;;;;;0.55;58.17;94207.59;1723300;82;21192;-56
2021/03/23 05:44:04;;;;;;;15.83;11.57;;;;;;;0.67;57.21;94190.90;1738327;82;21156;-56
2021/03/23 05:46:38;;;;;;;14.47;10.28;;;;;;;0.75;56.05;94197.03;1717115;82;21151;-56
2021/03/23 05:49:31;;;;;;;20.97;15.25;;;;;;;0.76;55.72;94197.97;1731309;82;22244;-57
2021/03/23 05:52:36;;;;;;;23.87;15.20;;;;;;;0.71;55.59;94194.34;1695650;82;21123;-57
2021/03/23 05:55:34;;;;;;;19.40;12.03;;;;;;;0.64;55.58;94194.97;1736461;82;21077;-58
2021/03/23 05:58:03;;;;;;;19.60;12.80;;;;;;;0.70;55.48;94194.16;1726295;82;21053;-58
2021/03/23 06:00:36;;;;;;;26.77;14.23;;;;;;;0.70;55.05;94192.80;1723215;82;21152;-55
2021/03/23 06:03:29;;;;;;;24.23;14.28;;;;;;;0.77;54.99;94196.80;1736170;82;21575;-57
2021/03/23 06:06:32;;;;;;;23.25;13.05;;;;;;;0.85;54.74;94205.07;1732149;82;21631;-57
2021/03/23 06:09:00;;;;;;;;;;;;;;;0.79;54.90;94203.94;1695560;82;21155;-58
2021/03/23 06:11:34;;;;;;;20.75;11.90;;;;;;;0.87;54.97;94196.53;1717518;82;20218;-58
2021/03/23 06:14:26;;;;;;;21.90;14.30;;;;;;;0.98;54.41;94195.27;1727420;82;21057;-62
2021/03/23 06:17:40;;;;;;;23.25;14.95;;;;;;;1.05;54.27;94196.59;1730129;82;22011;-58
2021/03/23 06:20:47;;;;;;;25.10;16.75;;;;;;;1.03;54.31;94202.20;1724291;82;21277;-58
2021/03/23 06:23:37;;;;;;;20.97;13.62;;;;;;;0.94;54.46;94197.25;1717564;82;21108;-57
2021/03/23 06:26:23;;;;;;;23.07;14.58;;;;;;;1.05;54.25;94185.75;1750309;81;21500;-58
2021/03/23 06:29:08;;;;;;;19.42;12.50;;;;;;;1.08;54.34;94192.29;1742962;81;21171;-58
2021/03/23 06:32:19;;;;;;;21.02;11.48;;;;;;;1.18;53.78;94188.13;1748317;81;21871;-58
2021/03/23 06:34:54;;;;;;;19.02;11.50;;;;;;;1.26;53.41;94177.43;1746897;80;21188;-58
2021/03/23 06:37:35;;;;;;;19.20;11.75;;;;;;;1.33;53.19;94184.13;1712859;82;21168;-58
2021/03/23 06:40:19;;;;;;;37.05;15.70;;;;;;;1.37;52.97;94179.46;1732417;82;21119;-58
2021/03/23 06:42:52;;;;;;;26.68;15.78;;;;;;;1.42;53.14;94183.66;1731146;82;22614;-61
2021/03/23 06:45:34;;;;;;;28.57;16.52;;;;;;;1.54;52.99;94186.61;1707728;81;22266;-59
2021/03/23 06:48:26;;;;;;;28.75;17.98;;;;;;;1.67;53.27;94190.35;1722948;81;22069;-57
2021/03/23 06:51:12;;;;;;;22.10;15.50;;;;;;;1.83;53.41;94186.50;1734986;80;21159;-63
2021/03/23 06:53:41;;;;;;;31.80;16.42;;;;;;;1.96;53.41;94189.62;1724442;81;21289;-61
2021/03/23 06:56:22;;;;;;;25.12;16.00;;;;;;;2.04;53.54;94183.53;1725609;80;21468;-63
2021/03/23 06:59:17;;;;;;;19.45;11.68;;;;;;;2.09;53.87;94180.36;1725853;81;22406;-58
2021/03/23 07:01:51;;;;;;;17.92;11.78;;;;;;;2.18;53.79;94187.42;1724670;81;21211;-64
2021/03/23 07:04:35;;;;;;;17.52;12.53;;;;;;;2.15;53.83;94181.46;1720784;81;21422;-63
2021/03/23 07:07:21;;;;;;;20.55;12.23;;;;;;;2.18;54.31;94181.39;1721086;80;21212;-59
2021/03/23 07:09:58;;;;;;;14.98;9.50;;;;;;;2.17;54.83;94188.61;1719029;81;21178;-64
2021/03/23 07:12:46;;;;;;;13.62;8.73;;;;;;;2.18;54.33;94179.28;1716487;81;22683;-64
2021/03/23 07:15:24;;;;;;;15.18;11.05;;;;;;;2.22;54.12;94178.64;1717087;82;21286;-59
2021/03/23 07:18:20;;;;;;;15.90;10.78;;;;;;;2.26;54.68;94180.72;1718381;80;21488;-63
2021/03/23 07:20:51;;;;;;;13.25;9.53;;;;;;;2.32;55.07;94177.75;1710162;81;21135;-58
2021/03/23 07:23:37;;;;;;;14.33;9.88;;;;;;;2.26;55.19;94171.22;1725119;81;21540;-62
2021/03/23 07:26:26;;;;;;;14.75;11.05;;;;;;;2.26;55.38;94175.30;1680440;82;21466;-61
2021/03/23 07:29:12;;;;;;;16.82;10.65;;;;;;;2.22;56.03;94171.86;1707378;81;21330;-58
2021/03/23 07:31:52;;;;;;;13.32;9.95;;;;;;;2.29;56.27;94168.47;1706164;82;21745;-62
2021/03/23 07:34:27;;;;;;;9.33;8.23;;;;;;;2.34;56.05;94168.61;1690031;82;21486;-64
2021/03/23 07:37:15;;;;;;;10.63;6.72;;;;;;;2.39;55.71;94165.43;1722866;81;21156;-62
2021/03/23 07:39:57;;;;;;;13.43;9.00;;;;;;;2.39;56.25;94162.72;1732339;80;21253;-65
2021/03/23 07:42:39;;;;;;;9.80;8.25;;;;;;;2.45;55.92;94166.50;1720519;80;21190;-61
2021/03/23 07:45:30;;;;;;;12.40;8.90;;;;;;;2.55;56.13;94156.88;1702168;81;21187;-64
2021/03/23 07:48:09;;;;;;;9.08;7.75;;;;;;;2.60;56.55;94166.48;1727483;81;21208;-60
2021/03/23 07:50:39;;;;;;;58.73;38.10;;;;;;;2.63;56.44;94162.36;1737296;82;21235;-62
2021/03/23 07:53:24;;;;;;;12.80;9.65;;;;;;;2.67;56.84;94155.53;1735698;80;21235;-62
2021/03/23 07:55:52;;;;;;;11.60;7.58;;;;;;;2.75;57.21;94151.52;1707114;80;22079;-67
2021/03/23 07:58:45;;;;;;;14.03;9.43;;;;;;;2.69;57.42;94155.88;1690466;81;22225;-69
2021/03/23 08:01:21;;;;;;;13.72;10.13;;;;;;;2.61;58.21;94155.22;1730810;81;21204;-62
2021/03/23 08:04:05;;;;;;;11.22;8.95;;;;;;;2.54;58.81;94164.05;1733975;79;21223;-59
2021/03/23 08:06:59;;;;;;;13.32;9.13;;;;;;;2.51;59.10;94154.02;1718683;82;22405;-61
2021/03/23 08:10:04;;;;;;;13.30;8.90;;;;;;;2.48;59.68;94162.98;1714498;81;21208;-61
2021/03/23 08:12:57;;;;;;;16.57;10.10;;;;;;;2.45;59.94;94157.78;1702757;82;21158;-61
2021/03/23 08:16:03;;;;;;;17.57;11.22;;;;;;;2.46;60.67;94153.11;1725805;80;21128;-62
2021/03/23 08:19:06;;;;;;;42.70;31.10;;;;;;;2.49;60.38;94148.98;1722213;80;21017;-65
2021/03/23 08:21:47;;;;;;;20.75;12.18;;;;;;;2.53;60.66;94155.73;1715036;81;22302;-65
2021/03/23 08:24:48;;;;;;;12.95;10.72;;;;;;;2.68;60.75;94144.84;1723479;81;21267;-60
2021/03/23 08:30:52;;;;;;;12.93;9.00;;;;;;;2.78;61.18;94147.39;1871883;75;23191;-63
2021/03/23 08:34:10;;;;;;;19.65;12.73;;;;;;;2.70;61.22;94149.27;1815589;77;21174;-62
2021/03/23 08:37:03;;;;;;;20.65;11.30;;;;;;;2.66;61.55;94148.56;1829847;77;21388;-64
2021/03/23 08:40:08;;;;;;;30.05;18.45;;;;;;;2.78;61.99;94144.68;1836879;77;21223;-60
2021/03/23 08:42:37;;;;;;;18.85;13.62;;;;;;;2.77;61.45;94144.50;1818354;76;21243;-62
2021/03/23 08:45:28;;;;;;;12.25;10.13;;;;;;;2.85;61.15;94149.23;1821354;77;22035;-62
2021/03/23 08:48:26;;;;;;;13.28;10.10;;;;;;;2.94;60.68;94147.53;1822030;76;21130;-60
2021/03/23 08:51:00;;;;;;;11.43;8.90;;;;;;;3.06;60.87;94140.73;1824669;76;21666;-63
2021/03/23 08:53:34;;;;;;;10.98;8.00;;;;;;;3.19;60.86;94144.38;1820530;76;21210;-62
2021/03/23 08:56:04;;;;;;;12.45;9.70;;;;;;;3.30;60.59;94144.97;1821372;76;22057;-61
2021/03/23 08:58:47;;;;;;;13.10;9.98;;;;;;;3.40;60.89;94135.27;1825945;77;21183;-62
2021/03/23 09:01:41;;;;;;;16.77;9.33;;;;;;;3.47;60.87;94134.37;1823391;77;21126;-65
2021/03/23 09:04:24;;;;;;;13.93;12.13;;;;;;;3.55;60.19;94137.29;1823480;77;21364;-65
2021/03/23 09:06:59;;;;;;;13.28;9.43;;;;;;;3.56;60.39;94129.34;1818947;77;21253;-72
2021/03/23 09:09:36;;;;;;;10.15;8.55;;;;;;;3.67;59.63;94133.96;1819667;77;22187;-65
2021/03/23 09:12:12;;;;;;;8.23;7.05;;;;;;;3.76;59.25;94136.91;1820721;76;21205;-62
2021/03/23 09:15:15;;;;;;;10.80;8.48;;;;;;;3.81;58.82;94122.81;1819290;77;21836;-65
2021/03/23 09:18:17;;;;;;;10.25;7.72;;;;;;;3.82;59.04;94117.55;1816451;77;21579;-66
2021/03/23 09:20:52;;;;;;;12.07;9.08;;;;;;;3.90;58.02;94116.81;1825949;76;21162;-64
2021/03/23 09:23:27;;;;;;;12.23;8.95;;;;;;;4.07;57.92;94117.05;1812922;77;21595;-60
2021/03/23 09:26:35;;;;;;;11.53;8.28;;;;;;;4.08;57.03;94118.58;1783315;79;21503;-63
2021/03/23 09:29:35;;;;;;;16.17;12.25;;;;;;;4.11;56.91;94125.31;1711031;82;21170;-66
2021/03/23 09:32:20;;;;;;;8.63;7.72;;;;;;;4.12;57.26;94109.73;1700277;83;21346;-65
2021/03/23 09:35:13;;;;;;;12.10;10.80;;;;;;;4.21;56.85;94110.70;1723455;82;21992;-64
2021/03/23 09:37:57;;;;;;;11.08;8.23;;;;;;;4.13;56.89;94102.52;1721383;81;21403;-63
2021/03/23 09:40:33;;;;;;;13.22;9.20;;;;;;;4.15;56.33;94100.14;1737103;81;22312;-70
2021/03/23 09:43:23;;;;;;;11.03;8.58;;;;;;;4.13;56.07;94101.16;1738431;81;21643;-65
2021/03/23 09:45:59;;;;;;;7.33;6.62;;;;;;;4.14;56.81;94109.50;1727417;81;21426;-60
2021/03/23 09:49:00;;;;;;;10.30;7.92;;;;;;;4.17;56.60;94106.51;1742803;81;21162;-61
2021/03/23 09:51:53;;;;;;;16.57;12.33;;;;;;;4.09;56.84;94104.53;1741465;81;21225;-64
2021/03/23 09:54:29;;;;;;;8.23;6.85;;;;;;;4.01;57.53;94105.88;1729670;81;22049;-61
2021/03/23 09:57:12;;;;;;;8.18;6.60;;;;;;;4.05;57.37;94101.13;1726420;82;21662;-60
2021/03/23 09:59:45;;;;;;;11.55;7.95;;;;;;;4.00;57.75;94094.83;1731649;80;21392;-62
2021/03/23 10:02:30;;;;;;;7.53;6.60;;;;;;;3.92;57.93;94097.53;1767893;80;22027;-63
2021/03/23 10:05:22;;;;;;;14.28;10.20;;;;;;;3.95;58.30;94081.72;1744165;81;22087;-58
2021/03/23 10:07:53;;;;;;;10.08;8.65;;;;;;;3.97;58.41;94077.98;1744874;81;21213;-62
2021/03/23 10:10:31;;;;;;;11.08;9.13;;;;;;;4.05;58.43;94072.55;1745765;81;21776;-58
2021/03/23 10:13:20;;;;;;;13.22;9.95;;;;;;;4.03;58.44;94078.27;1749111;81;21379;-60
2021/03/23 10:15:48;;;;;;;11.30;8.25;;;;;;;3.93;58.30;94080.59;1748427;81;21205;-61
2021/03/23 10:18:24;;;;;;;8.00;6.92;;;;;;;3.87;58.78;94077.60;1745808;81;21650;-60
2021/03/23 10:21:11;;;;;;;18.12;12.85;;;;;;;3.87;58.44;94078.95;1753229;81;21681;-59
2021/03/23 10:23:50;;;;;;;37.85;20.57;;;;;;;4.01;58.78;94074.59;1745316;81;21170;-67
2021/03/23 10:26:19;;;;;;;11.40;8.65;;;;;;;4.13;58.81;94069.86;1722244;80;22349;-61
2021/03/23 10:31:39;;;;;;;11.10;9.30;;;;;;;4.26;59.40;94053.63;1875894;75;23026;-65
2021/03/23 10:34:14;;;;;;;9.20;8.20;;;;;;;4.38;59.07;94060.53;1821235;77;21230;-65
2021/03/23 10:37:02;;;;;;;8.58;6.85;;;;;;;4.59;58.35;94057.92;1801778;77;22227;-62
2021/03/23 10:39:45;;;;;;;8.28;6.75;;;;;;;4.65;57.47;94057.57;1829535;77;22100;-61
2021/03/23 10:42:31;;;;;;;8.68;7.00;;;;;;;4.59;57.78;94048.39;1816119;77;21185;-60
2021/03/23 10:45:30;;;;;;;9.45;7.92;;;;;;;4.58;58.31;94046.25;1822254;77;21139;-60
2021/03/23 10:48:02;;;;;;;12.23;8.18;;;;;;;4.64;57.35;94047.26;1814812;77;21140;-64
2021/03/23 10:50:34;;;;;;;7.92;6.70;;;;;;;4.68;57.30;94038.42;1818731;77;21420;-67
2021/03/23 10:53:23;;;;;;;11.68;9.13;;;;;;;4.61;56.25;94031.77;1814982;77;21166;-58
2021/03/23 10:55:52;;;;;;;10.45;7.58;;;;;;;4.63;56.37;94032.11;1817638;78;21136;-64
2021/03/23 10:58:24;;;;;;;9.48;8.20;;;;;;;4.71;56.20;94028.03;1838702;77;21167;-59
2021/03/23 11:01:16;;;;;;;10.40;8.13;;;;;;;4.76;55.84;94028.88;1827869;76;21996;-67
2021/03/23 11:03:46;;;;;;;10.05;8.38;;;;;;;4.88;55.29;94017.29;1778343;79;21193;-68
2021/03/23 11:06:32;;;;;;;8.50;7.20;;;;;;;4.87;54.72;94022.57;1738578;80;21316;-60
2021/03/23 11:09:02;;;;;;;19.77;12.95;;;;;;;4.92;54.65;94010.36;1751182;81;21206;-68
2021/03/23 11:11:31;;;;;;;12.80;9.28;;;;;;;4.93;54.63;94005.86;1801907;78;21188;-65
2021/03/23 11:14:00;;;;;;;11.22;7.53;;;;;;;4.98;54.02;94009.42;1799552;78;21091;-63
2021/03/23 11:16:32;;;;;;;10.35;7.83;;;;;;;4.92;53.15;94001.61;1793120;79;21764;-61
2021/03/23 11:19:03;;;;;;;8.05;6.12;;;;;;;4.81;52.99;93992.93;1780809;79;21982;-64
2021/03/23 11:21:35;;;;;;;12.75;9.80;;;;;;;4.72;52.53;93998.23;1728844;80;21214;-64
2021/03/23 11:24:07;;;;;;;10.98;7.20;;;;;;;4.62;53.34;93994.42;1789306;78;21232;-66
2021/03/23 11:26:35;;;;;;;9.85;7.33;;;;;;;4.63;53.63;93996.70;1776500;78;21169;-60
2021/03/23 11:29:05;;;;;;;10.25;8.05;;;;;;;4.66;53.87;93997.23;1780656;79;22145;-62
2021/03/23 11:31:34;;;;;;;9.50;7.20;;;;;;;4.59;54.51;93989.83;1786609;79;21654;-60
2021/03/23 11:34:06;;;;;;;13.38;10.32;;;;;;;4.68;54.82;93990.75;1775920;79;21159;-67
2021/03/23 11:36:34;;;;;;;7.75;6.97;;;;;;;4.84;54.28;93987.23;1795916;79;21194;-65
2021/03/23 11:39:05;;;;;;;6.20;5.60;;;;;;;5.06;54.40;93995.79;1788964;79;21205;-63
2021/03/23 11:41:41;;;;;;;9.23;7.03;;;;;;;5.21;55.20;93981.95;1786301;79;21615;-60
2021/03/23 11:44:21;;;;;;;15.68;9.50;;;;;;;5.32;54.98;93987.86;1786270;79;21202;-65
2021/03/23 11:47:10;;;;;;;11.20;8.75;;;;;;;5.48;54.83;93976.89;1772797;80;21744;-57
2021/03/23 11:49:52;;;;;;;7.65;5.53;;;;;;;5.73;53.54;93971.47;1786455;79;21227;-64
2021/03/23 11:52:21;;;;;;;6.60;5.90;;;;;;;6.05;53.05;93964.48;1776373;79;21202;-63
2021/03/23 11:54:50;;;;;;;10.72;9.20;;;;;;;6.31;51.89;93961.31;1772753;79;22415;-63
2021/03/23 11:57:19;;;;;;;7.05;5.40;;;;;;;6.59;50.71;93961.00;1783882;79;21119;-56
2021/03/23 11:59:48;;;;;;;8.08;7.17;;;;;;;6.92;50.18;93967.70;1763872;80;21123;-66
2021/03/23 12:02:17;;;;;;;9.48;8.08;;;;;;;7.08;49.78;93973.75;1781636;79;21114;-66
2021/03/23 12:04:47;;;;;;;5.78;4.92;;;;;;;7.01;49.99;93984.16;1782857;79;21190;-64
2021/03/23 12:07:50;;;;;;;12.63;10.18;;;;;;;6.82;50.04;93983.84;1784855;79;22293;-62
2021/03/23 12:10:25;;;;;;;8.98;7.00;;;;;;;6.54;51.42;93980.06;1786784;79;21115;-62
2021/03/23 12:13:14;;;;;;;10.63;7.78;;;;;;;6.10;52.38;93989.88;1745123;79;21563;-65
2021/03/23 12:15:58;;;;;;;8.55;6.92;;;;;;;5.81;53.97;93982.39;1761124;79;21179;-64
2021/03/23 12:18:26;;;;;;;;;;;;;;;5.67;54.79;93981.40;1778049;79;21646;-64